Stations météo

réclame
Mon MeteoGroup
Sciacca, Italie (16436): Température de l'air & dewpoint: 17.10.2018 07:00:00 - 23.10.2018 07:00:00 (CEST)Sciacca, Italie (16436): Vitesse du vent: 17.10.2018 07:00:00 - 23.10.2018 07:00:00 (CEST)Sciacca, Italie (16436): Direction du vent: 17.10.2018 07:00:00 - 23.10.2018 07:00:00 (CEST)Sciacca, Italie (16436): reduced air pressure: 17.10.2018 07:00:00 - 23.10.2018 07:00:00 (CEST)Sciacca, Italie (16436): Quantités de précipitations: 17.10.2018 07:00:00 - 23.10.2018 07:00:00 (CEST)
Date & Time tt [°C] td [°C] ff [km/h] ff [knt] dd ppp [hPa] rr [mm]
23.10.2018 07:00:00 12,8 12,0 8 4 N 1020,2 -
23.10.2018 06:00:00 12,1 11,5 - - - 1019,5 -
23.10.2018 05:00:00 13,3 12,3 - - - 1019,1 -
23.10.2018 04:00:00 14,0 13,0 5 3 E 1019,3 -
23.10.2018 03:00:00 14,2 13,2 - - - 1020,4 -
23.10.2018 02:00:00 14,0 13,2 13 7 NW 1021,0 0,0
23.10.2018 01:00:00 14,2 13,5 11 6 WNW 1021,3 -
23.10.2018 00:00:00 14,4 13,2 15 8 WNW 1021,7 -
22.10.2018 23:00:00 14,8 13,4 9 5 W 1022,5 -
22.10.2018 22:00:00 15,0 13,0 8 4 SW 1022,2 -
22.10.2018 21:00:00 15,6 13,2 5 3 WSW 1022,0 -
22.10.2018 20:00:00 16,1 13,3 13 7 W 1021,8 0,0
22.10.2018 19:00:00 16,4 13,1 15 8 W 1021,5 -
22.10.2018 18:00:00 17,0 12,7 8 4 NE 1021,2 -
22.10.2018 17:00:00 17,5 12,4 22 12 WSW 1021,0 -
22.10.2018 16:00:00 19,9 11,9 21 11 W 1020,9 -
22.10.2018 15:00:00 19,9 15,7 24 13 W 1020,9 -
22.10.2018 14:00:00 20,7 17,3 18 10 W 1021,1 0,0
22.10.2018 13:00:00 20,4 17,2 11 6 WSW 1021,8 -
22.10.2018 12:00:00 20,7 18,0 5 3 N 1022,4 -
22.10.2018 11:00:00 19,5 18,1 9 5 WSW 1023,0 -
22.10.2018 10:00:00 18,0 17,5 8 4 WSW 1023,1 -
22.10.2018 09:00:00 16,0 15,8 - - - 1023,0 -
22.10.2018 08:00:00 14,4 14,0 2 1 NE 1022,4 0,0
22.10.2018 07:00:00 14,6 14,1 - - - 1022,4 -
22.10.2018 06:00:00 14,0 13,2 26 14 N 1022,8 -
22.10.2018 05:00:00 18,7 18,2 5 3 N 1021,8 -
22.10.2018 04:00:00 18,9 18,2 9 5 WNW 1022,9 -
22.10.2018 03:00:00 19,1 18,2 9 5 W 1023,6 -
22.10.2018 02:00:00 19,1 17,7 11 6 NNW 1024,4 0,0
22.10.2018 01:00:00 19,4 17,8 8 4 NNW 1025,0 -
22.10.2018 00:00:00 19,5 17,2 9 5 NW 1025,2 -
21.10.2018 23:00:00 19,6 17,1 13 7 NW 1025,4 -
21.10.2018 22:00:00 20,3 16,5 8 4 NW 1025,2 -
21.10.2018 21:00:00 20,3 17,8 9 5 NW 1024,9 -
21.10.2018 20:00:00 20,1 18,5 13 7 NW 1024,7 0,0
21.10.2018 19:00:00 20,6 18,8 18 10 W 1024,5 -
21.10.2018 18:00:00 21,8 19,5 18 10 W 1024,2 -
21.10.2018 17:00:00 22,7 21,1 11 6 WSW 1024,6 -
21.10.2018 16:00:00 22,5 20,7 13 7 WSW 1025,0 -
21.10.2018 15:00:00 22,3 20,7 13 7 WSW 1025,6 -
21.10.2018 14:00:00 22,5 20,7 11 6 WSW 1026,4 0,0
21.10.2018 13:00:00 22,7 20,9 8 4 SSW 1027,4 -
21.10.2018 12:00:00 21,5 20,1 4 2 SSW 1028,2 -
21.10.2018 11:00:00 20,7 19,8 5 3 SSW 1028,8 -
21.10.2018 10:00:00 20,3 20,2 5 3 S 1029,2 -
21.10.2018 09:00:00 17,9 17,8 4 2 ENE 1029,2 -
21.10.2018 08:00:00 17,2 17,0 0 0 N 1028,6 0,0
21.10.2018 07:00:00 17,2 16,8 0 0 N 1028,8 -
21.10.2018 06:00:00 17,6 17,2 2 1 NNE 1028,9 -
21.10.2018 05:00:00 17,4 16,9 4 2 NNE 1029,2 -
21.10.2018 04:00:00 17,4 16,7 4 2 NNE 1029,3 -
21.10.2018 03:00:00 17,5 16,6 4 2 NNE 1029,8 -
21.10.2018 02:00:00 17,9 17,2 8 4 NNE 1029,6 0,0
21.10.2018 01:00:00 18,0 17,5 5 3 NNE 1029,8 -
21.10.2018 00:00:00 18,1 17,6 4 2 ENE 1030,2 -
20.10.2018 23:00:00 18,6 18,2 0 0 N 1030,4 -
20.10.2018 22:00:00 18,8 18,4 4 2 NNE 1030,1 -
20.10.2018 21:00:00 18,9 18,2 0 0 N 1029,5 -
20.10.2018 20:00:00 19,6 18,7 5 3 NNE 1029,2 0,0
20.10.2018 19:00:00 20,5 19,1 0 0 N 1029,1 -
20.10.2018 18:00:00 21,7 20,5 5 3 WSW 1028,6 -
20.10.2018 17:00:00 22,5 21,1 8 4 SW 1028,4 -
20.10.2018 16:00:00 23,5 21,5 8 4 SW 1028,4 -
20.10.2018 15:00:00 23,4 20,9 9 5 SW 1028,7 -
20.10.2018 14:00:00 23,7 20,8 8 4 SW 1028,9 0,0
20.10.2018 13:00:00 23,2 20,3 8 4 SW 1029,6 -
20.10.2018 12:00:00 22,9 20,9 8 4 SW 1029,8 -
20.10.2018 11:00:00 22,4 20,8 5 3 SW 1029,8 -
20.10.2018 10:00:00 21,5 20,4 4 2 SSW 1029,9 -
20.10.2018 09:00:00 19,8 19,3 2 1 SSE 1029,5 -
20.10.2018 08:00:00 17,4 16,7 2 1 NW 1028,9 0,0
20.10.2018 07:00:00 17,6 16,4 4 2 NNW 1028,8 -
20.10.2018 06:00:00 18,5 17,3 8 4 N 1028,6 -
20.10.2018 05:00:00 18,7 17,5 8 4 NE 1028,1 -
20.10.2018 04:00:00 18,2 17,0 4 2 NE 1028,0 -
20.10.2018 03:00:00 18,4 17,4 5 3 NE 1028,3 -
20.10.2018 02:00:00 17,5 16,5 2 1 NNW 1028,1 0,0
20.10.2018 01:00:00 18,1 17,1 4 2 NE 1028,0 -
20.10.2018 00:00:00 18,0 16,8 8 4 NNE 1027,6 -
19.10.2018 23:00:00 17,9 16,7 5 3 NNE 1027,3 -
19.10.2018 22:00:00 18,2 17,3 5 3 NNE 1026,8 -
19.10.2018 21:00:00 18,3 17,3 4 2 NE 1026,4 -
19.10.2018 20:00:00 18,6 17,2 4 2 NE 1025,5 -
19.10.2018 19:00:00 19,8 18,2 5 3 WSW 1024,5 -
19.10.2018 18:00:00 21,1 18,6 5 3 SW 1023,7 -
19.10.2018 17:00:00 21,8 18,9 5 3 SW 1023,1 -
19.10.2018 16:00:00 22,2 18,7 5 3 SSW 1022,7 -
19.10.2018 15:00:00 22,5 19,6 5 3 S 1022,5 -
19.10.2018 14:00:00 22,0 18,3 5 3 SSE 1022,7 0,0
19.10.2018 13:00:00 21,6 17,9 9 5 S 1023,2 -
19.10.2018 12:00:00 21,3 17,4 4 2 SSE 1023,2 -
19.10.2018 11:00:00 21,0 18,3 9 5 SSE 1022,9 -
19.10.2018 10:00:00 21,2 19,3 4 2 SE 1022,6 -
19.10.2018 09:00:00 19,2 17,5 2 1 SE 1022,6 -
19.10.2018 08:00:00 18,2 16,6 11 6 NW 1022,0 0,0
19.10.2018 07:00:00 16,8 15,1 2 1 WNW 1021,2 -
19.10.2018 06:00:00 17,7 15,6 4 2 NNE 1020,7 -
19.10.2018 05:00:00 17,8 16,1 8 4 N 1020,2 -
19.10.2018 04:00:00 17,5 15,8 11 6 NE 1020,2 -
19.10.2018 03:00:00 17,4 15,7 15 8 ENE 1020,7 -
19.10.2018 02:00:00 17,1 15,6 13 7 ENE 1020,8 0,0
19.10.2018 01:00:00 17,3 14,9 2 1 NW 1020,5 -
19.10.2018 00:00:00 17,7 14,5 5 3 N 1020,7 -
18.10.2018 23:00:00 18,6 15,2 2 1 WSW 1020,6 -
18.10.2018 22:00:00 17,4 15,7 15 8 NE 1019,9 -
18.10.2018 21:00:00 15,6 14,7 15 8 NNE 1020,2 -
18.10.2018 20:00:00 14,8 14,4 16 9 NNE 1020,7 0,0
18.10.2018 19:00:00 14,8 14,6 15 8 NNE 1022,1 -
18.10.2018 18:00:00 14,8 14,4 13 7 NNE 1021,3 -
18.10.2018 17:00:00 15,0 14,3 13 7 NE 1020,5 -
18.10.2018 16:00:00 16,8 14,6 16 9 ENE 1020,5 -
18.10.2018 15:00:00 22,1 20,0 13 7 E 1017,3 -
18.10.2018 14:00:00 23,1 17,9 22 12 E 1017,8 0,0
18.10.2018 13:00:00 24,4 18,7 18 10 E 1018,3 -
18.10.2018 12:00:00 23,5 19,0 24 13 E 1018,1 -
18.10.2018 11:00:00 22,1 18,4 24 13 E 1018,5 -
18.10.2018 10:00:00 21,6 18,3 29 16 E 1018,3 -
18.10.2018 09:00:00 20,9 18,4 26 14 ENE 1018,3 -
18.10.2018 08:00:00 20,5 18,4 24 13 ENE 1018,4 0,0
18.10.2018 07:00:00 20,6 18,3 22 12 E 1018,8 -
18.10.2018 06:00:00 20,7 17,8 21 11 E 1018,8 -
18.10.2018 05:00:00 21,0 17,3 24 13 E 1017,8 -
18.10.2018 04:00:00 21,0 17,5 24 13 E 1018,0 -
18.10.2018 03:00:00 20,8 17,7 22 12 ENE 1018,6 -
18.10.2018 02:00:00 20,3 17,8 21 11 ENE 1019,5 0,0
18.10.2018 01:00:00 20,4 17,9 21 11 E 1020,8 -
18.10.2018 00:00:00 20,3 18,0 16 9 E 1021,3 -
17.10.2018 23:00:00 20,3 18,2 15 8 E 1021,9 -
17.10.2018 22:00:00 20,6 18,1 15 8 E 1021,7 -
17.10.2018 21:00:00 20,8 17,9 15 8 E 1021,5 -
17.10.2018 20:00:00 21,2 18,9 13 7 ENE 1021,5 0,0
17.10.2018 19:00:00 21,2 20,1 8 4 E 1021,0 -
17.10.2018 18:00:00 21,9 20,8 13 7 SE 1021,0 -
17.10.2018 17:00:00 22,8 21,4 11 6 SE 1021,4 -
17.10.2018 16:00:00 23,5 21,9 15 8 SE 1021,6 -
17.10.2018 15:00:00 24,4 21,8 9 5 SSE 1022,2 -
17.10.2018 14:00:00 24,2 21,1 13 7 SE 1022,6 0,0
17.10.2018 13:00:00 24,0 19,4 18 10 E 1023,6 -
17.10.2018 12:00:00 24,0 19,4 18 10 E 1024,2 -
17.10.2018 11:00:00 23,2 19,9 15 8 E 1024,7 -
17.10.2018 10:00:00 21,8 18,7 13 7 ENE 1025,1 -
17.10.2018 09:00:00 20,0 17,9 13 7 ENE 1025,6 -
17.10.2018 08:00:00 18,0 16,6 11 6 NE 1025,8 0,0
17.10.2018 07:00:00 17,6 16,6 9 5 NE 1026,0 -

tt = Température de l'air
td = dewpoint
ff = Vitesse du vent
dd = Direction du vent
ppp = reduced air pressure
rr = Quantités de précipitations

stations d'obs. à proximité